Terminal Aerodrome Forecast
Issued by NWS Goodland, KS

Home | Current Version | Previous Version | Text Only | Print | Product List | Glossary On
Versions: 1 2 3 4 5 6 7 8 9 10 11 12 13 14 15 16 17 18 19 20 21 22 23 24 25
000
FTUS43 KGLD 011738
TAFGLD
TAF
KGLD 011738Z 0118/0218 35026G37KT P6SM BKN025
      TEMPO 0119/0123 -SN SCT020 BKN040
     FM020000 35015KT P6SM SKC
     FM020200 VRB06KT P6SM SKC
     FM020600 21010KT P6SM SCT100
     FM021400 23015KT P6SM BKN090=

USA.gov is the U.S. government's official web portal to all federal, state and local government web resources and services.